sensor_id;sensor_type;location;lat;lon;timestamp;pressure;altitude;pressure_sealevel;temperature;humidity
4576;BME280;2300;51.874;8.430;2023-06-10T00:01:53;100680.91;;;19.14;67.33
4576;BME280;2300;51.874;8.430;2023-06-10T00:04:25;100686.75;;;19.13;67.08
4576;BME280;2300;51.874;8.430;2023-06-10T00:06:52;100678.47;;;19.03;67.55
4576;BME280;2300;51.874;8.430;2023-06-10T00:09:20;100674.66;;;18.94;67.66
4576;BME280;2300;51.874;8.430;2023-06-10T00:11:47;100683.03;;;18.89;67.45
4576;BME280;2300;51.874;8.430;2023-06-10T00:14:14;100673.66;;;18.69;68.02
4576;BME280;2300;51.874;8.430;2023-06-10T00:16:41;100671.72;;;18.70;68.43
4576;BME280;2300;51.874;8.430;2023-06-10T00:19:10;100677.56;;;18.63;68.27
4576;BME280;2300;51.874;8.430;2023-06-10T00:21:39;100675.63;;;18.64;67.89
4576;BME280;2300;51.874;8.430;2023-06-10T00:24:07;100678.41;;;18.64;67.95
4576;BME280;2300;51.874;8.430;2023-06-10T00:26:38;100670.94;;;18.59;67.61
4576;BME280;2300;51.874;8.430;2023-06-10T00:29:05;100670.94;;;18.59;67.20
4576;BME280;2300;51.874;8.430;2023-06-10T00:31:33;100669.25;;;18.58;67.44
4576;BME280;2300;51.874;8.430;2023-06-10T00:33:59;100669.25;;;18.58;67.00
4576;BME280;2300;51.874;8.430;2023-06-10T00:36:26;100667.34;;;18.54;67.58
4576;BME280;2300;51.874;8.430;2023-06-10T00:38:52;100681.00;;;18.40;67.87
4576;BME280;2300;51.874;8.430;2023-06-10T00:41:19;100674.38;;;18.36;67.77
4576;BME280;2300;51.874;8.430;2023-06-10T00:43:47;100670.22;;;18.33;67.90
4576;BME280;2300;51.874;8.430;2023-06-10T00:46:13;100679.97;;;18.26;68.10
4576;BME280;2300;51.874;8.430;2023-06-10T00:48:42;100680.81;;;18.26;67.73
4576;BME280;2300;51.874;8.430;2023-06-10T00:51:10;100681.38;;;18.23;67.53
4576;BME280;2300;51.874;8.430;2023-06-10T00:53:39;100683.06;;;18.09;68.18
4576;BME280;2300;51.874;8.430;2023-06-10T00:56:06;100684.78;;;18.00;68.69
4576;BME280;2300;51.874;8.430;2023-06-10T00:58:32;100682.56;;;17.97;68.88
4576;BME280;2300;51.874;8.430;2023-06-10T01:01:00;100680.63;;;17.87;68.87
4576;BME280;2300;51.874;8.430;2023-06-10T01:03:27;100680.63;;;17.82;69.02
4576;BME280;2300;51.874;8.430;2023-06-10T01:05:59;100682.59;;;17.72;69.39
4576;BME280;2300;51.874;8.430;2023-06-10T01:08:35;100677.34;;;17.55;70.02
4576;BME280;2300;51.874;8.430;2023-06-10T01:11:04;100675.66;;;17.49;70.32
4576;BME280;2300;51.874;8.430;2023-06-10T01:13:35;100677.03;;;17.46;70.65
4576;BME280;2300;51.874;8.430;2023-06-10T01:16:04;100685.66;;;17.45;70.31
4576;BME280;2300;51.874;8.430;2023-06-10T01:18:31;100682.88;;;17.40;70.37
4576;BME280;2300;51.874;8.430;2023-06-10T01:20:58;100684.56;;;17.36;70.80
4576;BME280;2300;51.874;8.430;2023-06-10T01:23:26;100686.78;;;17.29;71.06
4576;BME280;2300;51.874;8.430;2023-06-10T01:26:00;100685.94;;;17.28;70.97
4576;BME280;2300;51.874;8.430;2023-06-10T01:28:31;100693.41;;;17.23;71.13
4576;BME280;2300;51.874;8.430;2023-06-10T01:31:06;100685.09;;;17.12;71.66
4576;BME280;2300;51.874;8.430;2023-06-10T01:33:36;100690.63;;;17.07;72.10
4576;BME280;2300;51.874;8.430;2023-06-10T01:36:03;100693.13;;;17.04;72.30
4576;BME280;2300;51.874;8.430;2023-06-10T01:38:34;100693.38;;;17.02;72.30
4576;BME280;2300;51.874;8.430;2023-06-10T01:41:03;100695.03;;;16.93;72.38
4576;BME280;2300;51.874;8.430;2023-06-10T01:43:32;100689.19;;;16.95;72.40
4576;BME280;2300;51.874;8.430;2023-06-10T01:45:59;100654.47;;;16.62;72.83
4576;BME280;2300;51.874;8.430;2023-06-10T01:48:26;100703.59;;;16.87;72.46
4576;BME280;2300;51.874;8.430;2023-06-10T01:50:53;100697.78;;;16.83;72.83
4576;BME280;2300;51.874;8.430;2023-06-10T01:53:21;100696.09;;;16.77;72.71
4576;BME280;2300;51.874;8.430;2023-06-10T01:55:48;100696.09;;;16.72;73.14
4576;BME280;2300;51.874;8.430;2023-06-10T01:58:16;100687.50;;;16.68;73.35
4576;BME280;2300;51.874;8.430;2023-06-10T02:00:42;100695.50;;;16.65;73.81
4576;BME280;2300;51.874;8.430;2023-06-10T02:03:09;100696.03;;;16.57;73.94
4576;BME280;2300;51.874;8.430;2023-06-10T02:05:35;100698.22;;;16.55;73.92
4576;BME280;2300;51.874;8.430;2023-06-10T02:08:02;100703.22;;;16.48;73.86
4576;BME280;2300;51.874;8.430;2023-06-10T02:10:28;100707.09;;;16.47;73.70
4576;BME280;2300;51.874;8.430;2023-06-10T02:12:56;100703.72;;;16.40;75.11
4576;BME280;2300;51.874;8.430;2023-06-10T02:15:23;100715.06;;;16.38;74.18
4576;BME280;2300;51.874;8.430;2023-06-10T02:17:49;100706.69;;;16.28;74.18
4576;BME280;2300;51.874;8.430;2023-06-10T02:20:16;100711.41;;;16.27;74.25
4576;BME280;2300;51.874;8.430;2023-06-10T02:22:42;100722.47;;;16.22;74.29
4576;BME280;2300;51.874;8.430;2023-06-10T02:25:09;100718.56;;;16.18;74.79
4576;BME280;2300;51.874;8.430;2023-06-10T02:27:36;100719.09;;;16.10;74.84
4576;BME280;2300;51.874;8.430;2023-06-10T02:30:05;100717.19;;;16.16;73.97
4576;BME280;2300;51.874;8.430;2023-06-10T02:32:35;100720.81;;;16.21;72.98
4576;BME280;2300;51.874;8.430;2023-06-10T02:35:01;100724.75;;;16.30;72.49
4576;BME280;2300;51.874;8.430;2023-06-10T02:37:28;100726.72;;;16.40;72.21
4576;BME280;2300;51.874;8.430;2023-06-10T02:39:54;100719.50;;;16.39;71.77
4576;BME280;2300;51.874;8.430;2023-06-10T02:42:21;100722.00;;;16.41;71.26
4576;BME280;2300;51.874;8.430;2023-06-10T02:44:47;100728.13;;;16.43;71.41
4576;BME280;2300;51.874;8.430;2023-06-10T02:47:15;100721.47;;;16.49;70.97
4576;BME280;2300;51.874;8.430;2023-06-10T02:49:41;100726.47;;;16.42;71.24
4576;BME280;2300;51.874;8.430;2023-06-10T02:52:08;100728.16;;;16.48;70.55
4576;BME280;2300;51.874;8.430;2023-06-10T02:54:36;100729.81;;;16.49;70.48
4576;BME280;2300;51.874;8.430;2023-06-10T02:57:03;100729.25;;;16.47;70.32
4576;BME280;2300;51.874;8.430;2023-06-10T02:59:30;100734.22;;;16.45;70.65
4576;BME280;2300;51.874;8.430;2023-06-10T03:01:57;100727.59;;;16.46;70.10
4576;BME280;2300;51.874;8.430;2023-06-10T03:04:25;100727.59;;;16.46;70.01
4576;BME280;2300;51.874;8.430;2023-06-10T03:06:54;100730.38;;;16.51;69.82
4576;BME280;2300;51.874;8.430;2023-06-10T03:09:21;100734.81;;;16.47;69.87
4576;BME280;2300;51.874;8.430;2023-06-10T03:11:47;100736.50;;;16.53;69.84
4576;BME280;2300;51.874;8.430;2023-06-10T03:14:14;100741.19;;;16.47;69.75
4576;BME280;2300;51.874;8.430;2023-06-10T03:16:40;100730.38;;;16.51;69.95
4576;BME280;2300;51.874;8.430;2023-06-10T03:19:07;100738.72;;;16.56;69.73
4576;BME280;2300;51.874;8.430;2023-06-10T03:21:35;100742.06;;;16.58;69.35
4576;BME280;2300;51.874;8.430;2023-06-10T03:24:02;100742.34;;;16.61;69.54
4576;BME280;2300;51.874;8.430;2023-06-10T03:26:29;100740.94;;;16.64;69.21
4576;BME280;2300;51.874;8.430;2023-06-10T03:28:55;100699.28;;;16.39;69.10
4576;BME280;2300;51.874;8.430;2023-06-10T03:31:22;100750.13;;;16.74;69.12
4576;BME280;2300;51.874;8.430;2023-06-10T03:33:49;100743.22;;;16.72;69.53
4576;BME280;2300;51.874;8.430;2023-06-10T03:36:16;100746.53;;;16.74;69.27
4576;BME280;2300;51.874;8.430;2023-06-10T03:38:44;100744.88;;;16.73;69.31
4576;BME280;2300;51.874;8.430;2023-06-10T03:41:10;100747.34;;;16.69;69.51
4576;BME280;2300;51.874;8.430;2023-06-10T03:43:37;100752.94;;;16.85;68.64
4576;BME280;2300;51.874;8.430;2023-06-10T03:46:04;100755.47;;;16.91;68.64
4576;BME280;2300;51.874;8.430;2023-06-10T03:48:30;100748.84;;;16.97;68.31
4576;BME280;2300;51.874;8.430;2023-06-10T03:50:57;100754.13;;;16.99;68.57
4576;BME280;2300;51.874;8.430;2023-06-10T03:53:23;100746.13;;;17.07;68.24
4576;BME280;2300;51.874;8.430;2023-06-10T03:55:51;100744.19;;;17.08;68.09
4576;BME280;2300;51.874;8.430;2023-06-10T03:58:17;100744.44;;;17.06;68.43
4576;BME280;2300;51.874;8.430;2023-06-10T04:00:44;100738.66;;;17.18;68.07
4576;BME280;2300;51.874;8.430;2023-06-10T04:03:12;100738.38;;;17.09;68.60
4576;BME280;2300;51.874;8.430;2023-06-10T04:05:40;100736.13;;;17.22;68.13
4576;BME280;2300;51.874;8.430;2023-06-10T04:08:07;100738.66;;;17.23;68.12
4576;BME280;2300;51.874;8.430;2023-06-10T04:10:33;100735.88;;;17.28;68.03
4576;BME280;2300;51.874;8.430;2023-06-10T04:13:02;100733.94;;;17.29;68.41
4576;BME280;2300;51.874;8.430;2023-06-10T04:15:28;100726.72;;;17.33;68.26
4576;BME280;2300;51.874;8.430;2023-06-10T04:17:57;100735.06;;;17.33;67.90
4576;BME280;2300;51.874;8.430;2023-06-10T04:20:24;100740.59;;;17.38;67.84
4576;BME280;2300;51.874;8.430;2023-06-10T04:22:51;100745.31;;;17.42;68.10
4576;BME280;2300;51.874;8.430;2023-06-10T04:25:17;100742.28;;;17.49;67.80
4576;BME280;2300;51.874;8.430;2023-06-10T04:27:44;100751.19;;;17.61;68.36
4576;BME280;2300;51.874;8.430;2023-06-10T04:30:13;100755.06;;;17.70;68.05
4576;BME280;2300;51.874;8.430;2023-06-10T04:32:40;100748.66;;;17.75;67.53
4576;BME280;2300;51.874;8.430;2023-06-10T04:35:08;100747.81;;;17.84;67.53
4576;BME280;2300;51.874;8.430;2023-06-10T04:37:36;100752.53;;;18.09;66.94
4576;BME280;2300;51.874;8.430;2023-06-10T04:40:03;100757.47;;;18.42;66.93
4576;BME280;2300;51.874;8.430;2023-06-10T04:42:30;100757.94;;;18.65;65.82
4576;BME280;2300;51.874;8.430;2023-06-10T04:44:57;100761.47;;;18.91;66.13
4576;BME280;2300;51.874;8.430;2023-06-10T04:47:25;100765.13;;;19.30;64.31
4576;BME280;2300;51.874;8.430;2023-06-10T04:49:52;100763.22;;;19.64;63.53
4576;BME280;2300;51.874;8.430;2023-06-10T04:52:18;100765.53;;;19.86;63.06
4576;BME280;2300;51.874;8.430;2023-06-10T04:54:45;100761.72;;;20.06;63.22
4576;BME280;2300;51.874;8.430;2023-06-10T04:57:11;100767.75;;;20.42;62.38
4576;BME280;2300;51.874;8.430;2023-06-10T04:59:38;100760.44;;;20.22;61.58
4576;BME280;2300;51.874;8.430;2023-06-10T05:02:04;100772.53;;;20.65;61.59
4576;BME280;2300;51.874;8.430;2023-06-10T05:04:32;100763.41;;;20.60;60.42
4576;BME280;2300;51.874;8.430;2023-06-10T05:06:59;100767.00;;;20.84;61.64
4576;BME280;2300;51.874;8.430;2023-06-10T05:09:25;100753.00;;;21.08;59.76
4576;BME280;2300;51.874;8.430;2023-06-10T05:11:52;100766.91;;;21.31;59.03
4576;BME280;2300;51.874;8.430;2023-06-10T05:14:19;100765.72;;;21.37;58.21
4576;BME280;2300;51.874;8.430;2023-06-10T05:16:46;100767.84;;;21.78;57.76
4576;BME280;2300;51.874;8.430;2023-06-10T05:19:12;100774.91;;;21.89;57.81
4576;BME280;2300;51.874;8.430;2023-06-10T05:21:40;100772.16;;;22.35;58.57
4576;BME280;2300;51.874;8.430;2023-06-10T05:24:07;100770.88;;;22.14;57.15
4576;BME280;2300;51.874;8.430;2023-06-10T05:26:33;100772.47;;;23.16;55.63
4576;BME280;2300;51.874;8.430;2023-06-10T05:29:02;100773.13;;;24.86;53.98
4576;BME280;2300;51.874;8.430;2023-06-10T05:31:29;100762.28;;;26.68;51.33
4576;BME280;2300;51.874;8.430;2023-06-10T05:33:55;100772.63;;;28.10;47.92
4576;BME280;2300;51.874;8.430;2023-06-10T05:36:22;100770.34;;;28.24;46.98
4576;BME280;2300;51.874;8.430;2023-06-10T05:38:51;100772.78;;;28.70;44.97
4576;BME280;2300;51.874;8.430;2023-06-10T05:41:18;100765.25;;;28.99;44.93
4576;BME280;2300;51.874;8.430;2023-06-10T05:43:45;100762.25;;;29.31;44.76
4576;BME280;2300;51.874;8.430;2023-06-10T05:46:11;100772.41;;;29.72;43.11
4576;BME280;2300;51.874;8.430;2023-06-10T05:48:38;100754.56;;;29.84;42.60
4576;BME280;2300;51.874;8.430;2023-06-10T05:51:04;100760.44;;;29.51;42.91
4576;BME280;2300;51.874;8.430;2023-06-10T05:53:31;100765.09;;;30.58;41.81
4576;BME280;2300;51.874;8.430;2023-06-10T05:55:59;100759.88;;;30.13;42.11
4576;BME280;2300;51.874;8.430;2023-06-10T05:58:25;100746.00;;;30.40;42.62
4576;BME280;2300;51.874;8.430;2023-06-10T06:00:52;100750.91;;;30.11;41.86
4576;BME280;2300;51.874;8.430;2023-06-10T06:03:18;100751.88;;;30.47;41.24
4576;BME280;2300;51.874;8.430;2023-06-10T06:05:45;100754.59;;;30.00;42.37
4576;BME280;2300;51.874;8.430;2023-06-10T06:08:11;100758.50;;;30.23;42.67
4576;BME280;2300;51.874;8.430;2023-06-10T06:10:38;100754.94;;;30.42;40.09
4576;BME280;2300;51.874;8.430;2023-06-10T06:13:06;100760.41;;;30.19;41.93
4576;BME280;2300;51.874;8.430;2023-06-10T06:15:33;100754.88;;;30.85;42.41
4576;BME280;2300;51.874;8.430;2023-06-10T06:17:59;100752.84;;;30.86;40.75
4576;BME280;2300;51.874;8.430;2023-06-10T06:20:26;100753.22;;;29.94;41.15
4576;BME280;2300;51.874;8.430;2023-06-10T06:22:52;100747.69;;;29.85;41.23
4576;BME280;2300;51.874;8.430;2023-06-10T06:25:18;100746.56;;;29.46;41.19
4576;BME280;2300;51.874;8.430;2023-06-10T06:27:45;100743.81;;;29.10;42.72
4576;BME280;2300;51.874;8.430;2023-06-10T06:30:13;100744.75;;;28.89;42.43
4576;BME280;2300;51.874;8.430;2023-06-10T06:32:40;100752.28;;;29.10;41.61
4576;BME280;2300;51.874;8.430;2023-06-10T06:35:07;100747.22;;;29.15;42.62
4576;BME280;2300;51.874;8.430;2023-06-10T06:37:34;100747.81;;;29.89;42.49
4576;BME280;2300;51.874;8.430;2023-06-10T06:40:00;100746.13;;;30.00;41.39
4576;BME280;2300;51.874;8.430;2023-06-10T06:42:27;100753.28;;;29.82;42.05
4576;BME280;2300;51.874;8.430;2023-06-10T06:44:53;100754.56;;;30.12;40.69
4576;BME280;2300;51.874;8.430;2023-06-10T06:47:21;100749.53;;;30.21;41.13
4576;BME280;2300;51.874;8.430;2023-06-10T06:49:48;100749.41;;;29.34;41.55
4576;BME280;2300;51.874;8.430;2023-06-10T06:52:15;100744.72;;;29.26;43.10
4576;BME280;2300;51.874;8.430;2023-06-10T06:54:41;100739.69;;;28.83;42.87
4576;BME280;2300;51.874;8.430;2023-06-10T06:57:08;100748.06;;;28.79;43.55
4576;BME280;2300;51.874;8.430;2023-06-10T06:59:34;100743.13;;;28.19;42.54
4576;BME280;2300;51.874;8.430;2023-06-10T07:02:01;100749.81;;;28.02;44.51
4576;BME280;2300;51.874;8.430;2023-06-10T07:04:29;100738.66;;;28.06;43.57
4576;BME280;2300;51.874;8.430;2023-06-10T07:06:55;100743.78;;;28.37;43.08
4576;BME280;2300;51.874;8.430;2023-06-10T07:09:22;100742.56;;;28.26;44.11
4576;BME280;2300;51.874;8.430;2023-06-10T07:11:48;100746.34;;;28.30;45.72
4576;BME280;2300;51.874;8.430;2023-06-10T07:14:15;100744.47;;;28.22;43.51
4576;BME280;2300;51.874;8.430;2023-06-10T07:16:41;100750.59;;;27.91;46.59
4576;BME280;2300;51.874;8.430;2023-06-10T07:19:08;100749.81;;;27.49;43.91
4576;BME280;2300;51.874;8.430;2023-06-10T07:21:35;100758.31;;;27.19;45.17
4576;BME280;2300;51.874;8.430;2023-06-10T07:24:03;100754.25;;;27.08;46.27
4576;BME280;2300;51.874;8.430;2023-06-10T07:26:29;100754.31;;;27.20;45.43
4576;BME280;2300;51.874;8.430;2023-06-10T07:28:56;100757.91;;;27.00;45.88
4576;BME280;2300;51.874;8.430;2023-06-10T07:31:23;100762.13;;;27.23;46.88
4576;BME280;2300;51.874;8.430;2023-06-10T07:33:49;100761.16;;;27.40;45.27
4576;BME280;2300;51.874;8.430;2023-06-10T07:36:16;100764.09;;;27.85;44.21
4576;BME280;2300;51.874;8.430;2023-06-10T07:38:43;100766.09;;;27.85;44.94
4576;BME280;2300;51.874;8.430;2023-06-10T07:41:10;100768.78;;;27.81;43.54
4576;BME280;2300;51.874;8.430;2023-06-10T07:43:37;100763.47;;;27.59;43.35
4576;BME280;2300;51.874;8.430;2023-06-10T07:46:03;100765.81;;;27.57;43.19
4576;BME280;2300;51.874;8.430;2023-06-10T07:48:30;100777.94;;;28.11;42.82
4576;BME280;2300;51.874;8.430;2023-06-10T07:50:57;100762.59;;;27.67;43.83
4576;BME280;2300;51.874;8.430;2023-06-10T07:53:23;100770.34;;;27.70;43.45
4576;BME280;2300;51.874;8.430;2023-06-10T07:55:51;100763.88;;;27.90;43.28
4576;BME280;2300;51.874;8.430;2023-06-10T07:58:17;100771.97;;;28.13;43.62
4576;BME280;2300;51.874;8.430;2023-06-10T08:00:44;100771.13;;;28.57;41.65
4576;BME280;2300;51.874;8.430;2023-06-10T08:03:10;100765.00;;;28.43;41.96
4576;BME280;2300;51.874;8.430;2023-06-10T08:05:36;100772.44;;;28.60;45.43
4576;BME280;2300;51.874;8.430;2023-06-10T08:08:03;100771.38;;;28.64;42.47
4576;BME280;2300;51.874;8.430;2023-06-10T08:10:30;100770.53;;;28.88;43.05
4576;BME280;2300;51.874;8.430;2023-06-10T08:12:58;100773.81;;;28.66;42.95
4576;BME280;2300;51.874;8.430;2023-06-10T08:15:24;100773.59;;;28.83;41.72
4576;BME280;2300;51.874;8.430;2023-06-10T08:17:51;100780.41;;;28.82;41.17
4576;BME280;2300;51.874;8.430;2023-06-10T08:20:17;100779.59;;;28.81;43.28
4576;BME280;2300;51.874;8.430;2023-06-10T08:22:44;100770.31;;;28.69;42.94
4576;BME280;2300;51.874;8.430;2023-06-10T08:25:10;100766.91;;;28.18;44.36
4576;BME280;2300;51.874;8.430;2023-06-10T08:27:36;100774.78;;;28.70;43.30
4576;BME280;2300;51.874;8.430;2023-06-10T08:30:06;100778.41;;;28.58;42.73
4576;BME280;2300;51.874;8.430;2023-06-10T08:32:33;100776.06;;;28.60;43.37
4576;BME280;2300;51.874;8.430;2023-06-10T08:34:59;100771.47;;;28.56;41.48
4576;BME280;2300;51.874;8.430;2023-06-10T08:37:26;100767.31;;;28.41;42.37
4576;BME280;2300;51.874;8.430;2023-06-10T08:39:52;100778.41;;;28.58;41.18
4576;BME280;2300;51.874;8.430;2023-06-10T08:42:23;100771.28;;;28.28;41.03
4576;BME280;2300;51.874;8.430;2023-06-10T08:44:53;100769.69;;;28.06;41.80
4576;BME280;2300;51.874;8.430;2023-06-10T08:47:23;100770.75;;;28.01;43.55
4576;BME280;2300;51.874;8.430;2023-06-10T08:49:51;100777.16;;;28.35;43.04
4576;BME280;2300;51.874;8.430;2023-06-10T08:52:20;100769.09;;;28.00;43.66
4576;BME280;2300;51.874;8.430;2023-06-10T08:54:50;100766.00;;;27.93;42.02
4576;BME280;2300;51.874;8.430;2023-06-10T08:57:18;100767.19;;;27.72;43.29
4576;BME280;2300;51.874;8.430;2023-06-10T08:59:47;100761.56;;;27.72;44.05
4576;BME280;2300;51.874;8.430;2023-06-10T09:02:14;100768.44;;;27.83;43.55
4576;BME280;2300;51.874;8.430;2023-06-10T09:04:42;100781.75;;;27.94;43.78
4576;BME280;2300;51.874;8.430;2023-06-10T09:07:10;100770.03;;;28.04;44.99
4576;BME280;2300;51.874;8.430;2023-06-10T09:09:37;100776.72;;;28.33;43.83
4576;BME280;2300;51.874;8.430;2023-06-10T09:12:04;100769.03;;;28.21;44.00
4576;BME280;2300;51.874;8.430;2023-06-10T09:14:30;100772.97;;;27.96;43.62
4576;BME280;2300;51.874;8.430;2023-06-10T09:16:57;100774.41;;;28.14;45.82
4576;BME280;2300;51.874;8.430;2023-06-10T09:19:23;100767.06;;;28.34;44.99
4576;BME280;2300;51.874;8.430;2023-06-10T09:21:52;100765.53;;;28.36;45.26
4576;BME280;2300;51.874;8.430;2023-06-10T09:24:19;100760.66;;;28.13;44.08
4576;BME280;2300;51.874;8.430;2023-06-10T09:26:46;100763.84;;;28.11;45.87
4576;BME280;2300;51.874;8.430;2023-06-10T09:29:13;100768.03;;;28.50;45.74
4576;BME280;2300;51.874;8.430;2023-06-10T09:31:40;100762.78;;;28.16;44.27
4576;BME280;2300;51.874;8.430;2023-06-10T09:34:08;100764.16;;;27.97;44.52
4576;BME280;2300;51.874;8.430;2023-06-10T09:36:35;100756.53;;;28.10;45.24
4576;BME280;2300;51.874;8.430;2023-06-10T09:39:04;100768.19;;;28.21;46.75
4576;BME280;2300;51.874;8.430;2023-06-10T09:41:34;100763.66;;;28.28;45.80
4576;BME280;2300;51.874;8.430;2023-06-10T09:44:11;100766.81;;;28.27;45.93
4576;BME280;2300;51.874;8.430;2023-06-10T09:46:37;100764.66;;;28.12;45.74
4576;BME280;2300;51.874;8.430;2023-06-10T09:49:04;100763.19;;;27.93;45.31
4576;BME280;2300;51.874;8.430;2023-06-10T09:51:30;100759.47;;;28.01;48.28
4576;BME280;2300;51.874;8.430;2023-06-10T09:53:57;100756.19;;;28.12;46.13
4576;BME280;2300;51.874;8.430;2023-06-10T09:56:34;100748.78;;;28.19;45.12
4576;BME280;2300;51.874;8.430;2023-06-10T09:59:02;100758.16;;;28.56;46.43
4576;BME280;2300;51.874;8.430;2023-06-10T10:01:30;100762.88;;;28.52;45.89
4576;BME280;2300;51.874;8.430;2023-06-10T10:03:58;100762.63;;;28.81;45.41
4576;BME280;2300;51.874;8.430;2023-06-10T10:06:25;100763.13;;;28.59;46.74
4576;BME280;2300;51.874;8.430;2023-06-10T10:08:51;100771.81;;;28.54;45.76
4576;BME280;2300;51.874;8.430;2023-06-10T10:11:20;100763.22;;;28.87;46.18
4576;BME280;2300;51.874;8.430;2023-06-10T10:13:50;100752.66;;;29.08;45.97
4576;BME280;2300;51.874;8.430;2023-06-10T10:16:18;100766.41;;;29.22;46.79
4576;BME280;2300;51.874;8.430;2023-06-10T10:18:47;100755.38;;;29.05;45.56
4576;BME280;2300;51.874;8.430;2023-06-10T10:21:16;100756.22;;;29.45;45.80
4576;BME280;2300;51.874;8.430;2023-06-10T10:23:53;100755.31;;;29.29;46.51
4576;BME280;2300;51.874;8.430;2023-06-10T10:26:21;100754.19;;;29.06;47.56
4576;BME280;2300;51.874;8.430;2023-06-10T10:28:55;100748.28;;;29.11;47.25
4576;BME280;2300;51.874;8.430;2023-06-10T10:31:27;100756.78;;;29.11;46.24
4576;BME280;2300;51.874;8.430;2023-06-10T10:33:56;100756.63;;;28.83;46.24
4576;BME280;2300;51.874;8.430;2023-06-10T10:36:24;100754.41;;;29.13;47.85
4576;BME280;2300;51.874;8.430;2023-06-10T10:38:51;100748.84;;;28.92;45.77
4576;BME280;2300;51.874;8.430;2023-06-10T10:41:18;100748.31;;;28.74;48.70
4576;BME280;2300;51.874;8.430;2023-06-10T10:43:46;100744.53;;;29.07;47.92
4576;BME280;2300;51.874;8.430;2023-06-10T10:46:16;100746.28;;;29.11;47.10
4576;BME280;2300;51.874;8.430;2023-06-10T10:48:44;100745.34;;;29.07;46.96
4576;BME280;2300;51.874;8.430;2023-06-10T10:51:10;100744.16;;;29.20;46.90
4576;BME280;2300;51.874;8.430;2023-06-10T10:53:40;100758.34;;;29.48;48.78
4576;BME280;2300;51.874;8.430;2023-06-10T10:56:13;100739.44;;;29.24;46.16
4576;BME280;2300;51.874;8.430;2023-06-10T10:58:40;100752.16;;;29.18;47.14
4576;BME280;2300;51.874;8.430;2023-06-10T11:01:14;100743.31;;;29.32;47.34
4576;BME280;2300;51.874;8.430;2023-06-10T11:03:44;100740.50;;;29.08;47.38
4576;BME280;2300;51.874;8.430;2023-06-10T11:06:13;100749.13;;;29.11;45.57
4576;BME280;2300;51.874;8.430;2023-06-10T11:08:46;100738.38;;;28.92;46.64
4576;BME280;2300;51.874;8.430;2023-06-10T11:11:18;100748.72;;;29.25;45.72
4576;BME280;2300;51.874;8.430;2023-06-10T11:13:58;100749.53;;;29.38;48.53
4576;BME280;2300;51.874;8.430;2023-06-10T11:16:27;100723.66;;;29.51;49.79
4576;BME280;2300;51.874;8.430;2023-06-10T11:18:54;100734.75;;;29.56;48.62
4576;BME280;2300;51.874;8.430;2023-06-10T11:21:23;100726.50;;;29.51;48.24
4576;BME280;2300;51.874;8.430;2023-06-10T11:23:50;100735.94;;;29.55;47.16
4576;BME280;2300;51.874;8.430;2023-06-10T11:26:29;100722.53;;;29.52;48.14
4576;BME280;2300;51.874;8.430;2023-06-10T11:29:10;100734.75;;;29.56;48.48
4576;BME280;2300;51.874;8.430;2023-06-10T11:31:44;100723.44;;;29.56;48.57
4576;BME280;2300;51.874;8.430;2023-06-10T11:34:11;100727.00;;;29.41;46.07
4576;BME280;2300;51.874;8.430;2023-06-10T11:36:40;100720.94;;;29.27;47.30
4576;BME280;2300;51.874;8.430;2023-06-10T11:39:08;100726.28;;;29.44;46.67
4576;BME280;2300;51.874;8.430;2023-06-10T11:41:36;100719.44;;;29.57;45.72
4576;BME280;2300;51.874;8.430;2023-06-10T11:44:04;100710.28;;;29.48;47.41
4576;BME280;2300;51.874;8.430;2023-06-10T11:46:31;100719.63;;;29.64;46.92
4576;BME280;2300;51.874;8.430;2023-06-10T11:48:59;100718.00;;;29.51;45.48
4576;BME280;2300;51.874;8.430;2023-06-10T11:51:27;100722.53;;;29.52;48.92
4576;BME280;2300;51.874;8.430;2023-06-10T11:53:54;100716.97;;;29.56;48.30
4576;BME280;2300;51.874;8.430;2023-06-10T11:56:21;100700.97;;;29.48;46.08
4576;BME280;2300;51.874;8.430;2023-06-10T11:58:52;100712.09;;;29.68;48.40
4576;BME280;2300;51.874;8.430;2023-06-10T12:01:20;100712.88;;;29.97;47.06
4576;BME280;2300;51.874;8.430;2023-06-10T12:03:48;100715.66;;;30.09;47.21
4576;BME280;2300;51.874;8.430;2023-06-10T12:06:18;100712.16;;;30.00;46.61
4576;BME280;2300;51.874;8.430;2023-06-10T12:08:44;100712.44;;;29.95;46.86
4576;BME280;2300;51.874;8.430;2023-06-10T12:11:11;100697.53;;;29.54;47.02
4576;BME280;2300;51.874;8.430;2023-06-10T12:13:45;100705.69;;;29.71;46.58
4576;BME280;2300;51.874;8.430;2023-06-10T12:16:13;100700.13;;;29.47;46.50
4576;BME280;2300;51.874;8.430;2023-06-10T12:18:42;100694.66;;;29.66;46.77
4576;BME280;2300;51.874;8.430;2023-06-10T12:21:18;100706.22;;;29.61;47.44
4576;BME280;2300;51.874;8.430;2023-06-10T12:24:06;100699.00;;;29.36;47.56
4576;BME280;2300;51.874;8.430;2023-06-10T12:26:37;100712.41;;;29.39;48.63
4576;BME280;2300;51.874;8.430;2023-06-10T12:29:15;100696.38;;;29.43;48.06
4576;BME280;2300;51.874;8.430;2023-06-10T12:31:55;100702.22;;;29.50;47.97
4576;BME280;2300;51.874;8.430;2023-06-10T12:34:31;100696.56;;;29.62;46.18
4576;BME280;2300;51.874;8.430;2023-06-10T12:36:59;100702.69;;;29.80;47.99
4576;BME280;2300;51.874;8.430;2023-06-10T12:39:25;100696.03;;;29.72;46.77
4576;BME280;2300;51.874;8.430;2023-06-10T12:41:52;100689.19;;;29.73;46.91
4576;BME280;2300;51.874;8.430;2023-06-10T12:44:28;100695.91;;;29.53;47.21
4576;BME280;2300;51.874;8.430;2023-06-10T12:46:55;100699.03;;;29.80;49.01
4576;BME280;2300;51.874;8.430;2023-06-10T12:49:22;100701.97;;;29.67;47.95
4576;BME280;2300;51.874;8.430;2023-06-10T13:37:11;100676.00;;;29.93;45.68
4576;BME280;2300;51.874;8.430;2023-06-10T13:39:38;100668.88;;;29.84;43.61
4576;BME280;2300;51.874;8.430;2023-06-10T13:42:05;100664.06;;;30.00;43.25
4576;BME280;2300;51.874;8.430;2023-06-10T13:44:36;100667.91;;;30.23;43.38
4576;BME280;2300;51.874;8.430;2023-06-10T13:47:02;100656.50;;;30.20;42.00
4576;BME280;2300;51.874;8.430;2023-06-10T13:49:29;100665.06;;;30.23;42.48
4576;BME280;2300;51.874;8.430;2023-06-10T13:51:56;100656.03;;;30.33;43.67
4576;BME280;2300;51.874;8.430;2023-06-10T13:54:24;100670.53;;;30.47;43.82
4576;BME280;2300;51.874;8.430;2023-06-10T13:56:50;100654.00;;;30.65;44.31
4576;BME280;2300;51.874;8.430;2023-06-10T13:59:18;100654.91;;;30.53;43.06